createdAt,value
2022-12-24T00:01:32.669Z,1.40
2022-12-24T00:04:02.500Z,1.33
2022-12-24T00:06:30.485Z,1.10
2022-12-24T00:08:58.681Z,1.60
2022-12-24T00:11:26.925Z,1.25
2022-12-24T00:13:54.993Z,0.90
2022-12-24T00:16:23.296Z,1.33
2022-12-24T00:18:51.645Z,1.08
2022-12-24T00:21:20.925Z,0.85
2022-12-24T00:23:48.960Z,0.93
2022-12-24T00:26:17.336Z,0.80
2022-12-24T00:28:45.396Z,0.93
2022-12-24T00:31:15.624Z,0.70
2022-12-24T00:33:44.126Z,0.80
2022-12-24T00:36:12.294Z,0.70
2022-12-24T00:38:41.840Z,0.60
2022-12-24T00:41:24.461Z,0.93
2022-12-24T00:43:53.729Z,0.57
2022-12-24T00:46:22.277Z,0.62
2022-12-24T00:48:50.415Z,0.50
2022-12-24T00:51:19.146Z,0.40
2022-12-24T00:53:49.354Z,0.65
2022-12-24T00:56:18.382Z,0.57
2022-12-24T00:58:46.768Z,0.55
2022-12-24T01:01:16.234Z,0.57
2022-12-24T01:03:48.406Z,0.80
2022-12-24T01:06:17.862Z,0.40
2022-12-24T01:08:46.077Z,0.60
2022-12-24T01:11:15.523Z,0.60
2022-12-24T01:13:43.912Z,0.50
2022-12-24T01:16:19.295Z,0.65
2022-12-24T01:18:48.451Z,0.50
2022-12-24T01:21:17.003Z,0.65
2022-12-24T01:23:45.500Z,0.70
2022-12-24T01:26:15.284Z,0.80
2022-12-24T01:28:43.648Z,0.80
2022-12-24T01:31:13.892Z,0.40
2022-12-24T01:33:42.754Z,0.68
2022-12-24T01:36:11.155Z,0.80
2022-12-24T01:38:39.376Z,0.70
2022-12-24T01:41:34.128Z,0.70
2022-12-24T01:44:33.082Z,0.70
2022-12-24T01:47:09.187Z,0.60
2022-12-24T01:49:39.718Z,0.90
2022-12-24T01:52:12.034Z,0.65
2022-12-24T01:54:44.159Z,0.68
2022-12-24T01:57:17.071Z,0.62
2022-12-24T01:59:51.620Z,0.60
2022-12-24T02:02:20.958Z,0.98
2022-12-24T02:04:56.387Z,0.73
2022-12-24T02:07:24.432Z,0.40
2022-12-24T02:09:57.061Z,0.70
2022-12-24T02:12:26.109Z,0.60
2022-12-24T02:14:56.073Z,0.90
2022-12-24T02:17:30.730Z,0.77
2022-12-24T02:20:28.563Z,0.43
2022-12-24T02:23:17.625Z,0.70
2022-12-24T02:26:03.920Z,0.65
2022-12-24T02:28:56.682Z,0.80
2022-12-24T02:31:33.419Z,0.77
2022-12-24T02:34:07.163Z,0.60
2022-12-24T02:36:41.801Z,0.80
2022-12-24T02:39:13.523Z,0.98
2022-12-24T02:42:04.306Z,0.98
2022-12-24T02:44:39.643Z,1.02
2022-12-24T02:47:11.511Z,0.82
2022-12-24T02:49:40.098Z,1.25
2022-12-24T02:52:08.503Z,1.15
2022-12-24T02:54:36.673Z,1.17
2022-12-24T02:57:14.199Z,0.80
2022-12-24T03:00:01.203Z,1.33
2022-12-24T03:02:54.019Z,1.50
2022-12-24T03:05:31.111Z,1.17
2022-12-24T03:08:08.619Z,1.30
2022-12-24T03:10:46.712Z,0.70
2022-12-24T03:13:16.985Z,1.25
2022-12-24T03:15:47.106Z,1.02
2022-12-24T03:18:19.803Z,1.10
2022-12-24T03:20:53.969Z,1.23
2022-12-24T03:23:22.320Z,0.88
2022-12-24T03:25:51.727Z,1.05
2022-12-24T03:28:25.052Z,0.80
2022-12-24T03:30:54.485Z,1.62
2022-12-24T03:33:24.160Z,0.82
2022-12-24T03:35:52.161Z,0.70
2022-12-24T03:38:20.465Z,0.70
2022-12-24T03:40:48.694Z,0.73
2022-12-24T03:43:16.595Z,1.05
2022-12-24T03:45:45.093Z,1.08
2022-12-24T03:48:13.155Z,1.08
2022-12-24T03:50:42.486Z,0.65
2022-12-24T03:53:10.839Z,1.70
2022-12-24T03:55:39.968Z,1.15
2022-12-24T03:58:08.119Z,0.70
2022-12-24T04:00:36.521Z,0.85
2022-12-24T04:03:05.168Z,0.62
2022-12-24T04:05:33.342Z,1.00
2022-12-24T04:08:02.670Z,0.70
2022-12-24T04:10:33.039Z,0.82
2022-12-24T04:13:01.265Z,0.90
2022-12-24T04:15:29.267Z,0.70
2022-12-24T04:17:57.650Z,0.77
2022-12-24T04:20:25.816Z,0.80
2022-12-24T04:22:54.286Z,0.73
2022-12-24T04:25:23.911Z,1.08
2022-12-24T04:27:51.934Z,0.88
2022-12-24T04:30:20.345Z,0.77
2022-12-24T04:32:48.536Z,0.52
2022-12-24T04:35:16.720Z,0.90
2022-12-24T04:37:44.735Z,1.05
2022-12-24T04:40:13.376Z,0.55
2022-12-24T04:42:43.091Z,0.60
2022-12-24T04:45:11.589Z,0.82
2022-12-24T04:47:40.167Z,0.77
2022-12-24T04:50:09.372Z,0.70
2022-12-24T04:52:37.975Z,0.80
2022-12-24T04:55:07.070Z,0.70
2022-12-24T04:57:37.548Z,0.45
2022-12-24T05:00:09.875Z,0.50
2022-12-24T05:02:38.385Z,0.73
2022-12-24T05:05:07.346Z,0.70
2022-12-24T05:07:35.622Z,0.57
2022-12-24T05:10:04.028Z,0.93
2022-12-24T05:12:31.979Z,0.55
2022-12-24T05:14:59.963Z,0.65
2022-12-24T05:17:29.786Z,0.52
2022-12-24T05:19:57.858Z,0.93
2022-12-24T05:22:43.541Z,0.73
2022-12-24T05:25:29.362Z,0.82
2022-12-24T05:27:57.459Z,1.05
2022-12-24T05:30:25.712Z,0.62
2022-12-24T05:32:55.095Z,0.90
2022-12-24T05:35:23.107Z,0.55
2022-12-24T05:37:51.390Z,0.68
2022-12-24T05:40:19.435Z,0.90
2022-12-24T05:42:47.448Z,0.80
2022-12-24T05:45:15.875Z,0.50
2022-12-24T05:47:43.926Z,0.80
2022-12-24T05:50:13.977Z,0.93
2022-12-24T05:52:42.382Z,0.70
2022-12-24T05:55:11.110Z,0.95
2022-12-24T05:57:40.771Z,1.10
2022-12-24T06:00:10.574Z,0.60
2022-12-24T06:02:40.660Z,0.70
2022-12-24T06:05:09.781Z,0.88
2022-12-24T06:07:39.429Z,0.77
2022-12-24T06:10:08.970Z,1.05
2022-12-24T06:12:37.330Z,0.73
2022-12-24T06:15:07.225Z,0.70
2022-12-24T06:17:35.178Z,0.70
2022-12-24T06:20:03.458Z,0.98
2022-12-24T06:22:31.770Z,0.90
2022-12-24T06:25:01.214Z,1.10
2022-12-24T06:27:29.767Z,1.23
2022-12-24T06:29:57.763Z,1.10
2022-12-24T06:32:25.958Z,1.10
2022-12-24T06:34:54.232Z,1.05
2022-12-24T06:37:22.400Z,1.05
2022-12-24T06:39:50.403Z,0.93
2022-12-24T06:42:20.033Z,0.82
2022-12-24T06:44:48.079Z,0.90
2022-12-24T06:47:16.013Z,1.55
2022-12-24T06:49:44.398Z,0.98
2022-12-24T06:52:15.465Z,1.12
2022-12-24T06:54:43.389Z,1.23
2022-12-24T06:57:11.575Z,1.05
2022-12-24T06:59:41.027Z,0.90
2022-12-24T07:02:10.519Z,0.68
2022-12-24T07:04:38.903Z,0.62
2022-12-24T07:07:06.880Z,0.88
2022-12-24T07:09:34.972Z,1.60
2022-12-24T07:12:03.311Z,0.90
2022-12-24T07:14:31.503Z,0.98
2022-12-24T07:17:01.063Z,1.23
2022-12-24T07:19:29.402Z,1.17
2022-12-24T07:21:57.457Z,1.20
2022-12-24T07:24:25.585Z,0.90
2022-12-24T07:26:53.836Z,1.45
2022-12-24T07:29:22.019Z,0.95
2022-12-24T07:31:50.233Z,1.40
2022-12-24T07:34:19.916Z,1.17
2022-12-24T07:36:47.890Z,1.23
2022-12-24T07:39:15.972Z,1.00
2022-12-24T07:41:44.468Z,1.05
2022-12-24T07:44:15.315Z,0.98
2022-12-24T07:46:43.852Z,1.30
2022-12-24T07:49:12.517Z,1.00
2022-12-24T07:51:41.872Z,1.35
2022-12-24T07:54:09.929Z,1.20
2022-12-24T07:56:38.285Z,1.52
2022-12-24T07:59:06.371Z,1.27
2022-12-24T08:01:34.599Z,0.80
2022-12-24T08:04:02.975Z,2.08
2022-12-24T08:06:31.156Z,1.48
2022-12-24T08:09:00.801Z,1.33
2022-12-24T08:11:29.200Z,1.45
2022-12-24T08:13:57.410Z,1.20
2022-12-24T08:16:25.547Z,1.00
2022-12-24T08:18:53.939Z,0.90
2022-12-24T08:21:22.014Z,1.15
2022-12-24T08:23:52.463Z,1.20
2022-12-24T08:26:24.935Z,0.98
2022-12-24T08:28:52.907Z,0.98
2022-12-24T08:31:21.106Z,1.30
2022-12-24T08:33:49.168Z,1.58
2022-12-24T08:36:17.126Z,1.50
2022-12-24T08:38:45.439Z,1.35
2022-12-24T08:41:13.523Z,0.95
2022-12-24T08:43:45.316Z,1.42
2022-12-24T08:46:15.919Z,1.30
2022-12-24T08:48:43.938Z,1.60
2022-12-24T08:51:13.233Z,1.00
2022-12-24T08:53:41.723Z,1.25
2022-12-24T08:56:11.259Z,1.40
2022-12-24T08:58:39.613Z,1.23
2022-12-24T09:01:14.125Z,0.88
2022-12-24T09:03:43.081Z,1.52
2022-12-24T09:06:12.050Z,0.93
2022-12-24T09:08:40.702Z,1.15
2022-12-24T09:11:10.954Z,2.08
2022-12-24T09:13:39.936Z,1.20
2022-12-24T09:16:08.929Z,1.25
2022-12-24T09:18:39.200Z,1.25
2022-12-24T09:21:09.517Z,1.27
2022-12-24T09:23:40.644Z,1.00
2022-12-24T09:26:09.663Z,1.25
2022-12-24T09:28:37.716Z,1.20
2022-12-24T09:31:06.774Z,1.40
2022-12-24T09:33:37.682Z,1.12
2022-12-24T09:36:08.128Z,1.15
2022-12-24T09:38:40.202Z,1.48
2022-12-24T09:41:16.689Z,1.55
2022-12-24T09:43:48.703Z,2.08
2022-12-24T09:46:24.031Z,1.02
2022-12-24T09:48:56.659Z,0.95
2022-12-24T09:51:32.974Z,1.23
2022-12-24T09:54:05.200Z,1.30
2022-12-24T09:56:39.498Z,1.08
2022-12-24T09:59:12.765Z,1.05
2022-12-24T10:01:40.875Z,1.42
2022-12-24T10:04:13.491Z,1.20
2022-12-24T10:06:51.346Z,1.10
2022-12-24T10:09:34.457Z,1.15
2022-12-24T10:12:10.272Z,1.35
2022-12-24T10:14:51.847Z,1.20
2022-12-24T10:17:39.320Z,1.10
2022-12-24T10:20:23.617Z,1.27
2022-12-24T10:22:59.088Z,1.20
2022-12-24T10:25:31.562Z,1.20
2022-12-24T10:28:03.630Z,1.33
2022-12-24T10:30:31.992Z,1.40
2022-12-24T10:33:00.396Z,1.05
2022-12-24T10:35:33.700Z,1.40
2022-12-24T10:38:04.468Z,1.10
2022-12-24T10:40:39.086Z,0.90
2022-12-24T10:43:15.791Z,1.10
2022-12-24T10:45:48.591Z,1.23
2022-12-24T10:48:26.256Z,0.80
2022-12-24T10:51:00.637Z,0.95
2022-12-24T10:53:37.896Z,0.93
2022-12-24T10:56:08.868Z,1.10
2022-12-24T10:58:37.550Z,1.50
2022-12-24T11:01:05.963Z,0.85
2022-12-24T11:03:36.896Z,1.30
2022-12-24T11:06:09.485Z,0.68
2022-12-24T11:08:41.735Z,0.85
2022-12-24T11:11:13.795Z,0.93
2022-12-24T11:13:45.664Z,0.90
2022-12-24T11:16:20.194Z,1.10
2022-12-24T11:18:51.948Z,1.05
2022-12-24T11:21:23.951Z,1.08
2022-12-24T11:23:57.518Z,0.62
2022-12-24T11:26:28.494Z,1.10
2022-12-24T11:29:07.780Z,0.85
2022-12-24T11:31:37.613Z,1.05
2022-12-24T11:34:23.205Z,0.70
2022-12-24T11:36:52.374Z,1.00
2022-12-24T11:39:23.405Z,1.02
2022-12-24T11:41:52.318Z,1.02
2022-12-24T11:44:26.996Z,1.60
2022-12-24T11:46:57.560Z,1.02
2022-12-24T11:49:28.041Z,0.90
2022-12-24T11:52:23.405Z,0.50
2022-12-24T11:55:16.281Z,0.70
2022-12-24T11:57:51.444Z,1.75
2022-12-24T12:00:22.341Z,1.85
2022-12-24T12:02:53.141Z,1.00
2022-12-24T12:05:25.438Z,1.15
2022-12-24T12:07:59.163Z,1.00
2022-12-24T12:10:32.719Z,1.00
2022-12-24T12:13:03.820Z,0.85
2022-12-24T12:15:36.180Z,1.20
2022-12-24T12:18:10.316Z,0.60
2022-12-24T12:20:42.373Z,0.68
2022-12-24T12:23:16.704Z,0.77
2022-12-24T12:25:52.059Z,0.50
2022-12-24T12:28:24.234Z,0.85
2022-12-24T12:31:02.183Z,0.88
2022-12-24T12:33:38.938Z,0.70
2022-12-24T12:36:12.126Z,0.70
2022-12-24T12:38:41.386Z,0.80
2022-12-24T12:41:24.793Z,0.70
2022-12-24T12:44:27.632Z,0.77
2022-12-24T12:47:12.912Z,0.80
2022-12-24T12:49:49.602Z,0.62
2022-12-24T12:52:27.119Z,0.90
2022-12-24T12:55:09.418Z,0.90
2022-12-24T12:57:41.058Z,0.98
2022-12-24T13:00:13.128Z,0.73
2022-12-24T13:03:25.089Z,1.20
2022-12-24T13:06:19.798Z,1.60
2022-12-24T13:09:08.264Z,1.40
2022-12-24T13:12:01.038Z,0.98
2022-12-24T13:14:53.408Z,0.98
2022-12-24T13:18:03.607Z,1.05
2022-12-24T13:20:34.129Z,1.27
2022-12-24T13:23:09.705Z,1.67
2022-12-24T13:25:40.355Z,0.90
2022-12-24T13:28:17.237Z,0.55
2022-12-24T13:30:46.738Z,0.60
2022-12-24T13:33:35.406Z,1.45
2022-12-24T13:36:05.226Z,0.80
2022-12-24T13:38:43.876Z,1.15
2022-12-24T13:41:55.104Z,0.90
2022-12-24T13:44:32.858Z,0.52
2022-12-24T13:47:25.390Z,0.50
2022-12-24T13:50:13.491Z,0.90
2022-12-24T13:52:52.402Z,0.35
2022-12-24T13:55:24.028Z,0.50
2022-12-24T13:57:59.060Z,0.60
2022-12-24T14:00:35.088Z,0.73
2022-12-24T14:03:08.853Z,0.75
2022-12-24T14:05:41.522Z,1.08
2022-12-24T14:08:13.651Z,0.40
2022-12-24T14:10:45.131Z,0.30
2022-12-24T14:13:46.897Z,0.20
2022-12-24T14:16:18.506Z,0.35
2022-12-24T14:18:51.871Z,0.32
2022-12-24T14:21:24.863Z,0.40
2022-12-24T14:23:56.273Z,0.20
2022-12-24T14:26:28.990Z,0.30
2022-12-24T14:29:00.310Z,0.73
2022-12-24T14:31:28.533Z,0.50
2022-12-24T14:34:08.650Z,0.57
2022-12-24T14:36:37.879Z,0.62
2022-12-24T14:39:08.336Z,0.62
2022-12-24T14:41:50.166Z,0.65
2022-12-24T14:44:35.429Z,0.65
2022-12-24T14:47:18.833Z,0.60
2022-12-24T14:50:02.140Z,0.30
2022-12-24T14:53:05.987Z,1.08
2022-12-24T14:55:36.366Z,0.32
2022-12-24T14:58:25.138Z,0.40
2022-12-24T15:00:55.604Z,0.70
2022-12-24T15:03:26.633Z,0.40
2022-12-24T15:05:59.653Z,0.40
2022-12-24T15:08:31.945Z,0.70
2022-12-24T15:11:06.822Z,0.70
2022-12-24T15:13:38.295Z,0.50
2022-12-24T15:16:08.876Z,1.08
2022-12-24T15:18:40.291Z,0.95
2022-12-24T15:21:18.481Z,0.77
2022-12-24T15:23:53.047Z,1.20
2022-12-24T15:26:26.866Z,1.75
2022-12-24T15:29:02.613Z,1.37
2022-12-24T15:31:32.719Z,1.83
2022-12-24T15:34:03.588Z,1.42
2022-12-24T15:36:36.514Z,1.70
2022-12-24T15:39:14.674Z,1.50
2022-12-24T15:41:58.268Z,1.00
2022-12-24T15:44:27.565Z,1.20
2022-12-24T15:46:59.942Z,1.00
2022-12-24T15:49:31.289Z,0.85
2022-12-24T15:52:06.776Z,0.80
2022-12-24T15:54:36.167Z,0.52
2022-12-24T15:57:15.424Z,1.02
2022-12-24T15:59:43.979Z,0.70
2022-12-24T16:02:36.416Z,0.62
2022-12-24T16:05:37.056Z,0.73
2022-12-24T16:08:25.717Z,0.57
2022-12-24T16:11:10.245Z,0.45
2022-12-24T16:13:41.673Z,0.75
2022-12-24T16:16:13.064Z,0.60
2022-12-24T16:18:46.809Z,0.55
2022-12-24T16:21:21.028Z,0.52
2022-12-24T16:23:54.133Z,0.62
2022-12-24T16:26:22.873Z,0.88
2022-12-24T16:29:10.039Z,1.10
2022-12-24T16:31:44.352Z,1.50
2022-12-24T16:34:15.015Z,1.50
2022-12-24T16:36:44.456Z,4.00
2022-12-24T16:39:26.748Z,4.35
2022-12-24T16:42:14.745Z,4.03
2022-12-24T16:44:43.902Z,1.60
2022-12-24T16:47:17.677Z,1.60
2022-12-24T16:49:46.072Z,1.58
2022-12-24T16:52:18.621Z,1.77
2022-12-24T16:54:48.624Z,1.80
2022-12-24T16:57:17.515Z,2.20
2022-12-24T16:59:45.897Z,1.95
2022-12-24T17:02:15.938Z,2.00
2022-12-24T17:04:45.132Z,2.00
2022-12-24T17:07:18.119Z,2.70
2022-12-24T17:09:47.969Z,2.47
2022-12-24T17:12:16.125Z,2.95
2022-12-24T17:14:44.108Z,2.37
2022-12-24T17:17:22.631Z,2.30
2022-12-24T17:19:50.905Z,2.22
2022-12-24T17:22:19.843Z,1.92
2022-12-24T17:24:49.233Z,2.47
2022-12-24T17:27:17.509Z,2.20
2022-12-24T17:29:45.737Z,2.00
2022-12-24T17:32:13.717Z,2.20
2022-12-24T17:34:41.768Z,2.00
2022-12-24T17:37:10.049Z,2.65
2022-12-24T17:39:38.275Z,2.50
2022-12-24T17:42:07.668Z,2.28
2022-12-24T17:44:36.360Z,1.80
2022-12-24T17:47:06.018Z,2.35
2022-12-24T17:49:34.055Z,1.65
2022-12-24T17:52:03.266Z,1.55
2022-12-24T17:54:34.468Z,1.17
2022-12-24T17:57:02.798Z,1.55
2022-12-24T17:59:32.216Z,1.08
2022-12-24T18:02:00.515Z,1.70
2022-12-24T18:04:28.982Z,1.92
2022-12-24T18:07:02.181Z,1.87
2022-12-24T18:09:31.298Z,1.50
2022-12-24T18:12:00.097Z,1.35
2022-12-24T18:14:32.526Z,1.95
2022-12-24T18:17:00.901Z,1.92
2022-12-24T18:19:28.887Z,1.37
2022-12-24T18:21:57.157Z,2.05
2022-12-24T18:24:25.448Z,2.20
2022-12-24T18:26:53.444Z,1.90
2022-12-24T18:29:21.448Z,3.03
2022-12-24T18:31:51.941Z,2.87
2022-12-24T18:34:20.041Z,2.00
2022-12-24T18:36:54.550Z,2.35
2022-12-24T18:39:23.679Z,1.87
2022-12-24T18:41:52.099Z,2.12
2022-12-24T18:44:24.844Z,2.03
2022-12-24T18:46:55.663Z,1.58
2022-12-24T18:49:23.724Z,2.40
2022-12-24T18:51:51.781Z,2.08
2022-12-24T18:54:20.382Z,1.85
2022-12-24T18:56:51.551Z,2.53
2022-12-24T18:59:19.853Z,1.92
2022-12-24T19:01:48.065Z,2.00
2022-12-24T19:04:17.940Z,2.33
2022-12-24T19:06:52.723Z,2.05
2022-12-24T19:09:21.702Z,2.12
2022-12-24T19:11:50.346Z,1.73
2022-12-24T19:14:20.182Z,1.37
2022-12-24T19:16:48.357Z,1.77
2022-12-24T19:19:18.801Z,2.03
2022-12-24T19:21:46.880Z,1.60
2022-12-24T19:24:15.425Z,1.58
2022-12-24T19:26:43.685Z,2.10
2022-12-24T19:29:12.002Z,2.28
2022-12-24T19:31:40.704Z,2.62
2022-12-24T19:34:08.975Z,1.70
2022-12-24T19:36:38.404Z,2.42
2022-12-24T19:39:06.855Z,2.30
2022-12-24T19:41:35.226Z,2.30
2022-12-24T19:44:03.406Z,2.22
2022-12-24T19:46:33.474Z,2.10
2022-12-24T19:49:05.244Z,2.28
2022-12-24T19:51:34.700Z,1.65
2022-12-24T19:54:05.980Z,2.40
2022-12-24T19:56:34.564Z,1.55
2022-12-24T19:59:03.981Z,2.20
2022-12-24T20:01:34.720Z,2.42
2022-12-24T20:04:03.933Z,1.98
2022-12-24T20:06:34.333Z,1.92
2022-12-24T20:09:06.807Z,2.08
2022-12-24T20:11:36.113Z,1.83
2022-12-24T20:14:05.505Z,1.83
2022-12-24T20:16:34.494Z,1.83
2022-12-24T20:19:04.373Z,1.95
2022-12-24T20:21:32.932Z,2.30
2022-12-24T20:24:00.997Z,2.67
2022-12-24T20:26:31.108Z,2.03
2022-12-24T20:28:59.583Z,2.58
2022-12-24T20:31:30.329Z,2.78
2022-12-24T20:33:59.548Z,2.37
2022-12-24T20:36:29.581Z,2.28
2022-12-24T20:38:58.517Z,2.47
2022-12-24T20:41:29.144Z,2.17
2022-12-24T20:43:59.732Z,2.03
2022-12-24T20:46:31.057Z,2.30
2022-12-24T20:48:59.492Z,2.20
2022-12-24T20:51:29.127Z,1.70
2022-12-24T20:54:00.864Z,2.33
2022-12-24T20:56:30.780Z,2.80
2022-12-24T20:59:01.878Z,2.45
2022-12-24T21:01:31.154Z,2.17
2022-12-24T21:04:04.695Z,2.67
2022-12-24T21:06:33.614Z,2.05
2022-12-24T21:09:01.891Z,2.53
2022-12-24T21:11:47.481Z,1.92
2022-12-24T21:14:18.434Z,2.10
2022-12-24T21:16:47.158Z,2.78
2022-12-24T21:19:19.283Z,4.18
2022-12-24T21:21:48.326Z,3.47
2022-12-24T21:24:17.125Z,3.65
2022-12-24T21:26:45.250Z,3.47
2022-12-24T21:29:13.408Z,3.05
2022-12-24T21:31:43.924Z,2.72
2022-12-24T21:34:12.042Z,2.85
2022-12-24T21:36:40.285Z,4.45
2022-12-24T21:39:08.603Z,3.20
2022-12-24T21:41:36.569Z,3.45
2022-12-24T21:44:07.507Z,2.90
2022-12-24T21:46:36.123Z,3.08
2022-12-24T21:49:23.102Z,3.00
2022-12-24T21:51:51.414Z,3.47
2022-12-24T21:54:26.853Z,2.78
2022-12-24T21:57:15.069Z,2.37
2022-12-24T21:59:43.159Z,3.10
2022-12-24T22:02:13.135Z,2.50
2022-12-24T22:04:43.535Z,3.28
2022-12-24T22:07:38.268Z,3.17
2022-12-24T22:10:25.796Z,3.08
2022-12-24T22:12:53.965Z,3.97
2022-12-24T22:15:22.763Z,4.00
2022-12-24T22:17:50.948Z,3.47
2022-12-24T22:20:20.390Z,3.28
2022-12-24T22:22:49.152Z,3.00
2022-12-24T22:25:17.759Z,3.05
2022-12-24T22:27:45.827Z,3.40
2022-12-24T22:30:14.306Z,2.53
2022-12-24T22:32:42.282Z,2.62
2022-12-24T22:35:10.727Z,2.95
2022-12-24T22:37:40.459Z,4.55
2022-12-24T22:40:10.004Z,3.45
2022-12-24T22:42:38.655Z,2.55
2022-12-24T22:45:07.883Z,3.42
2022-12-24T22:47:35.980Z,2.33
2022-12-24T22:50:05.175Z,2.58
2022-12-24T22:52:33.856Z,2.20
2022-12-24T22:55:03.912Z,2.28
2022-12-24T22:57:32.420Z,1.77
2022-12-24T23:00:00.341Z,2.03
2022-12-24T23:02:29.185Z,2.78
2022-12-24T23:04:59.069Z,1.98
2022-12-24T23:07:28.896Z,2.28
2022-12-24T23:09:57.963Z,2.53
2022-12-24T23:12:45.508Z,1.67
2022-12-24T23:15:13.645Z,2.83
2022-12-24T23:17:42.147Z,1.75
2022-12-24T23:20:11.266Z,1.87
2022-12-24T23:22:39.433Z,2.95
2022-12-24T23:25:08.032Z,2.50
2022-12-24T23:27:37.642Z,2.67
2022-12-24T23:30:06.525Z,1.77
2022-12-24T23:32:34.810Z,2.55
2022-12-24T23:35:02.818Z,2.30
2022-12-24T23:37:35.144Z,1.87
2022-12-24T23:40:03.902Z,2.33
2022-12-24T23:42:31.830Z,2.53
2022-12-24T23:45:01.345Z,2.55
2022-12-24T23:47:29.796Z,2.58
2022-12-24T23:49:58.300Z,2.40
2022-12-24T23:52:26.382Z,2.05
2022-12-24T23:54:54.656Z,2.40
2022-12-24T23:57:22.636Z,2.70
2022-12-24T23:59:50.634Z,2.05
